sensor_id;sensor_type;location;lat;lon;timestamp;temperature;humidity
32356;DHT22;62578;53.556;9.914;2022-08-03T00:01:34;25.00;52.90
32356;DHT22;62578;53.556;9.914;2022-08-03T00:04:00;25.00;52.80
32356;DHT22;62578;53.556;9.914;2022-08-03T00:06:26;25.00;53.20
32356;DHT22;62578;53.556;9.914;2022-08-03T00:08:52;24.90;53.50
32356;DHT22;62578;53.556;9.914;2022-08-03T00:11:17;24.90;54.50
32356;DHT22;62578;53.556;9.914;2022-08-03T00:13:43;24.80;53.70
32356;DHT22;62578;53.556;9.914;2022-08-03T00:16:09;24.90;53.50
32356;DHT22;62578;53.556;9.914;2022-08-03T00:18:36;24.90;53.50
32356;DHT22;62578;53.556;9.914;2022-08-03T00:21:02;24.90;53.70
32356;DHT22;62578;53.556;9.914;2022-08-03T00:23:28;24.80;54.00
32356;DHT22;62578;53.556;9.914;2022-08-03T00:25:53;24.80;53.90
32356;DHT22;62578;53.556;9.914;2022-08-03T00:28:19;24.80;53.70
32356;DHT22;62578;53.556;9.914;2022-08-03T00:30:45;24.80;53.60
32356;DHT22;62578;53.556;9.914;2022-08-03T00:33:10;24.90;53.50
32356;DHT22;62578;53.556;9.914;2022-08-03T00:35:36;24.90;53.60
32356;DHT22;62578;53.556;9.914;2022-08-03T00:38:02;24.90;53.50
32356;DHT22;62578;53.556;9.914;2022-08-03T00:40:28;24.90;53.90
32356;DHT22;62578;53.556;9.914;2022-08-03T00:42:59;24.80;54.00
32356;DHT22;62578;53.556;9.914;2022-08-03T00:45:30;24.90;53.80
32356;DHT22;62578;53.556;9.914;2022-08-03T00:47:56;24.90;53.70
32356;DHT22;62578;53.556;9.914;2022-08-03T00:50:23;24.80;53.60
32356;DHT22;62578;53.556;9.914;2022-08-03T00:52:52;24.90;53.50
32356;DHT22;62578;53.556;9.914;2022-08-03T00:55:18;24.90;53.40
32356;DHT22;62578;53.556;9.914;2022-08-03T00:57:44;24.90;53.40
32356;DHT22;62578;53.556;9.914;2022-08-03T01:00:11;24.90;53.30
32356;DHT22;62578;53.556;9.914;2022-08-03T01:02:38;24.90;53.40
32356;DHT22;62578;53.556;9.914;2022-08-03T01:05:04;24.90;53.40
32356;DHT22;62578;53.556;9.914;2022-08-03T01:15:47;25.00;53.50
32356;DHT22;62578;53.556;9.914;2022-08-03T01:18:19;24.90;53.70
32356;DHT22;62578;53.556;9.914;2022-08-03T01:20:49;24.90;53.80
32356;DHT22;62578;53.556;9.914;2022-08-03T01:23:40;24.80;53.90
32356;DHT22;62578;53.556;9.914;2022-08-03T01:31:26;24.80;53.80
32356;DHT22;62578;53.556;9.914;2022-08-03T01:33:58;24.80;53.70
32356;DHT22;62578;53.556;9.914;2022-08-03T01:36:42;24.90;53.80
32356;DHT22;62578;53.556;9.914;2022-08-03T01:39:08;24.90;53.80
32356;DHT22;62578;53.556;9.914;2022-08-03T01:41:55;24.80;54.00
32356;DHT22;62578;53.556;9.914;2022-08-03T01:44:29;24.80;54.10
32356;DHT22;62578;53.556;9.914;2022-08-03T01:47:00;24.80;54.10
32356;DHT22;62578;53.556;9.914;2022-08-03T01:49:27;24.80;54.20
32356;DHT22;62578;53.556;9.914;2022-08-03T01:51:55;24.80;54.30
32356;DHT22;62578;53.556;9.914;2022-08-03T01:54:23;24.80;54.20
32356;DHT22;62578;53.556;9.914;2022-08-03T01:56:51;24.80;54.40
32356;DHT22;62578;53.556;9.914;2022-08-03T01:59:18;24.80;54.50
32356;DHT22;62578;53.556;9.914;2022-08-03T02:01:45;24.80;54.50
32356;DHT22;62578;53.556;9.914;2022-08-03T02:04:13;24.70;54.70
32356;DHT22;62578;53.556;9.914;2022-08-03T02:06:39;24.70;54.70
32356;DHT22;62578;53.556;9.914;2022-08-03T02:09:06;24.60;54.70
32356;DHT22;62578;53.556;9.914;2022-08-03T02:11:34;24.70;54.80
32356;DHT22;62578;53.556;9.914;2022-08-03T02:14:03;24.70;54.50
32356;DHT22;62578;53.556;9.914;2022-08-03T02:16:30;24.70;54.50
32356;DHT22;62578;53.556;9.914;2022-08-03T02:18:58;24.70;54.80
32356;DHT22;62578;53.556;9.914;2022-08-03T02:21:26;24.70;54.90
32356;DHT22;62578;53.556;9.914;2022-08-03T02:23:53;24.60;54.90
32356;DHT22;62578;53.556;9.914;2022-08-03T02:26:19;24.60;54.80
32356;DHT22;62578;53.556;9.914;2022-08-03T02:28:48;24.70;54.80
32356;DHT22;62578;53.556;9.914;2022-08-03T02:31:20;24.70;54.70
32356;DHT22;62578;53.556;9.914;2022-08-03T02:33:49;24.70;54.70
32356;DHT22;62578;53.556;9.914;2022-08-03T02:36:21;24.60;54.80
32356;DHT22;62578;53.556;9.914;2022-08-03T02:38:51;24.60;55.00
32356;DHT22;62578;53.556;9.914;2022-08-03T02:41:21;24.60;54.80
32356;DHT22;62578;53.556;9.914;2022-08-03T02:43:50;24.60;55.30
32356;DHT22;62578;53.556;9.914;2022-08-03T02:46:19;24.60;54.70
32356;DHT22;62578;53.556;9.914;2022-08-03T02:48:47;24.70;54.60
32356;DHT22;62578;53.556;9.914;2022-08-03T02:51:16;24.60;54.70
32356;DHT22;62578;53.556;9.914;2022-08-03T02:53:44;24.70;55.00
32356;DHT22;62578;53.556;9.914;2022-08-03T02:56:11;24.60;55.00
32356;DHT22;62578;53.556;9.914;2022-08-03T02:58:39;24.60;54.80
32356;DHT22;62578;53.556;9.914;2022-08-03T03:01:07;24.60;55.20
32356;DHT22;62578;53.556;9.914;2022-08-03T03:03:34;24.60;55.20
32356;DHT22;62578;53.556;9.914;2022-08-03T03:06:01;24.60;55.10
32356;DHT22;62578;53.556;9.914;2022-08-03T03:08:27;24.60;55.00
32356;DHT22;62578;53.556;9.914;2022-08-03T03:10:57;24.60;55.00
32356;DHT22;62578;53.556;9.914;2022-08-03T03:13:24;24.60;55.20
32356;DHT22;62578;53.556;9.914;2022-08-03T03:15:52;24.60;55.40
32356;DHT22;62578;53.556;9.914;2022-08-03T03:18:20;24.50;55.80
32356;DHT22;62578;53.556;9.914;2022-08-03T03:20:46;24.40;56.00
32356;DHT22;62578;53.556;9.914;2022-08-03T03:23:14;24.30;56.00
32356;DHT22;62578;53.556;9.914;2022-08-03T03:25:42;24.30;56.10
32356;DHT22;62578;53.556;9.914;2022-08-03T03:28:09;24.30;56.00
32356;DHT22;62578;53.556;9.914;2022-08-03T03:30:35;24.30;56.00
32356;DHT22;62578;53.556;9.914;2022-08-03T03:33:01;24.30;55.90
32356;DHT22;62578;53.556;9.914;2022-08-03T03:35:27;24.30;55.90
32356;DHT22;62578;53.556;9.914;2022-08-03T03:37:53;24.40;55.80
32356;DHT22;62578;53.556;9.914;2022-08-03T03:40:19;24.40;55.80
32356;DHT22;62578;53.556;9.914;2022-08-03T03:42:45;24.30;56.00
32356;DHT22;62578;53.556;9.914;2022-08-03T03:45:12;24.30;56.10
32356;DHT22;62578;53.556;9.914;2022-08-03T03:47:37;24.30;56.00
32356;DHT22;62578;53.556;9.914;2022-08-03T03:50:04;24.40;55.90
32356;DHT22;62578;53.556;9.914;2022-08-03T03:52:31;24.40;56.00
32356;DHT22;62578;53.556;9.914;2022-08-03T03:54:57;24.40;56.00
32356;DHT22;62578;53.556;9.914;2022-08-03T03:57:23;24.40;55.90
32356;DHT22;62578;53.556;9.914;2022-08-03T03:59:48;24.40;55.80
32356;DHT22;62578;53.556;9.914;2022-08-03T04:02:14;24.40;55.80
32356;DHT22;62578;53.556;9.914;2022-08-03T04:04:40;24.40;55.80
32356;DHT22;62578;53.556;9.914;2022-08-03T04:07:25;24.50;55.90
32356;DHT22;62578;53.556;9.914;2022-08-03T04:10:16;24.40;55.90
32356;DHT22;62578;53.556;9.914;2022-08-03T04:13:02;24.50;55.90
32356;DHT22;62578;53.556;9.914;2022-08-03T04:15:31;24.50;56.00
32356;DHT22;62578;53.556;9.914;2022-08-03T04:17:58;24.50;55.90
32356;DHT22;62578;53.556;9.914;2022-08-03T04:20:28;24.50;56.00
32356;DHT22;62578;53.556;9.914;2022-08-03T04:22:55;24.50;56.00
32356;DHT22;62578;53.556;9.914;2022-08-03T04:25:26;24.50;55.90
32356;DHT22;62578;53.556;9.914;2022-08-03T04:27:54;24.50;56.00
32356;DHT22;62578;53.556;9.914;2022-08-03T04:30:24;24.50;55.90
32356;DHT22;62578;53.556;9.914;2022-08-03T04:32:51;24.50;56.00
32356;DHT22;62578;53.556;9.914;2022-08-03T04:35:17;24.50;56.20
32356;DHT22;62578;53.556;9.914;2022-08-03T04:37:51;24.50;56.20
32356;DHT22;62578;53.556;9.914;2022-08-03T04:40:24;24.50;56.40
32356;DHT22;62578;53.556;9.914;2022-08-03T04:42:52;24.50;56.30
32356;DHT22;62578;53.556;9.914;2022-08-03T04:45:20;24.50;56.30
32356;DHT22;62578;53.556;9.914;2022-08-03T04:47:46;24.50;56.20
32356;DHT22;62578;53.556;9.914;2022-08-03T04:50:12;24.50;56.50
32356;DHT22;62578;53.556;9.914;2022-08-03T04:52:38;24.50;56.40
32356;DHT22;62578;53.556;9.914;2022-08-03T04:55:04;24.50;56.40
32356;DHT22;62578;53.556;9.914;2022-08-03T04:57:30;24.50;56.30
32356;DHT22;62578;53.556;9.914;2022-08-03T04:59:56;24.50;56.40
32356;DHT22;62578;53.556;9.914;2022-08-03T05:02:22;24.50;56.20
32356;DHT22;62578;53.556;9.914;2022-08-03T05:04:48;24.50;56.10
32356;DHT22;62578;53.556;9.914;2022-08-03T05:07:16;24.60;56.00
32356;DHT22;62578;53.556;9.914;2022-08-03T05:09:42;24.60;55.80
32356;DHT22;62578;53.556;9.914;2022-08-03T05:12:08;24.70;55.60
32356;DHT22;62578;53.556;9.914;2022-08-03T05:14:34;24.70;55.60
32356;DHT22;62578;53.556;9.914;2022-08-03T05:17:02;24.70;55.50
32356;DHT22;62578;53.556;9.914;2022-08-03T05:19:27;24.70;55.40
32356;DHT22;62578;53.556;9.914;2022-08-03T05:21:53;24.80;55.30
32356;DHT22;62578;53.556;9.914;2022-08-03T05:24:19;24.80;55.10
32356;DHT22;62578;53.556;9.914;2022-08-03T05:26:44;24.80;55.00
32356;DHT22;62578;53.556;9.914;2022-08-03T05:29:10;24.80;55.00
32356;DHT22;62578;53.556;9.914;2022-08-03T05:31:36;24.80;54.80
32356;DHT22;62578;53.556;9.914;2022-08-03T05:34:01;24.80;54.70
32356;DHT22;62578;53.556;9.914;2022-08-03T05:36:27;24.80;54.60
32356;DHT22;62578;53.556;9.914;2022-08-03T05:38:52;24.80;54.60
32356;DHT22;62578;53.556;9.914;2022-08-03T05:41:18;24.90;54.50
32356;DHT22;62578;53.556;9.914;2022-08-03T05:43:44;24.90;54.50
32356;DHT22;62578;53.556;9.914;2022-08-03T05:46:10;24.90;54.40
32356;DHT22;62578;53.556;9.914;2022-08-03T05:48:36;24.90;54.30
32356;DHT22;62578;53.556;9.914;2022-08-03T05:51:01;24.90;54.20
32356;DHT22;62578;53.556;9.914;2022-08-03T05:53:32;24.90;54.20
32356;DHT22;62578;53.556;9.914;2022-08-03T05:55:58;24.90;54.10
32356;DHT22;62578;53.556;9.914;2022-08-03T05:58:24;24.90;54.00
32356;DHT22;62578;53.556;9.914;2022-08-03T06:00:49;24.90;54.00
32356;DHT22;62578;53.556;9.914;2022-08-03T06:03:15;24.90;53.90
32356;DHT22;62578;53.556;9.914;2022-08-03T06:05:41;25.00;53.90
32356;DHT22;62578;53.556;9.914;2022-08-03T06:08:06;25.00;53.80
32356;DHT22;62578;53.556;9.914;2022-08-03T06:10:32;25.00;53.80
32356;DHT22;62578;53.556;9.914;2022-08-03T06:12:57;25.00;53.70
32356;DHT22;62578;53.556;9.914;2022-08-03T06:15:23;25.00;53.70
32356;DHT22;62578;53.556;9.914;2022-08-03T06:17:50;25.00;53.70
32356;DHT22;62578;53.556;9.914;2022-08-03T06:20:17;25.00;53.60
32356;DHT22;62578;53.556;9.914;2022-08-03T06:22:43;25.00;53.60
32356;DHT22;62578;53.556;9.914;2022-08-03T06:25:08;25.00;53.60
32356;DHT22;62578;53.556;9.914;2022-08-03T06:27:34;25.00;53.50
32356;DHT22;62578;53.556;9.914;2022-08-03T06:30:02;25.00;53.50
32356;DHT22;62578;53.556;9.914;2022-08-03T06:32:28;25.00;53.40
32356;DHT22;62578;53.556;9.914;2022-08-03T06:34:54;25.00;53.40
32356;DHT22;62578;53.556;9.914;2022-08-03T06:37:19;25.00;53.30
32356;DHT22;62578;53.556;9.914;2022-08-03T06:39:45;25.10;53.30
32356;DHT22;62578;53.556;9.914;2022-08-03T06:42:10;25.10;53.20
32356;DHT22;62578;53.556;9.914;2022-08-03T06:44:36;25.10;53.10
32356;DHT22;62578;53.556;9.914;2022-08-03T06:47:03;25.10;53.10
32356;DHT22;62578;53.556;9.914;2022-08-03T06:49:28;25.10;53.10
32356;DHT22;62578;53.556;9.914;2022-08-03T06:51:54;25.10;53.10
32356;DHT22;62578;53.556;9.914;2022-08-03T06:54:21;25.10;53.00
32356;DHT22;62578;53.556;9.914;2022-08-03T06:56:47;25.10;53.10
32356;DHT22;62578;53.556;9.914;2022-08-03T06:59:13;25.10;53.00
32356;DHT22;62578;53.556;9.914;2022-08-03T07:01:38;25.10;53.00
32356;DHT22;62578;53.556;9.914;2022-08-03T07:04:04;25.10;53.00
32356;DHT22;62578;53.556;9.914;2022-08-03T07:06:30;25.10;52.80
32356;DHT22;62578;53.556;9.914;2022-08-03T07:08:56;25.10;52.80
32356;DHT22;62578;53.556;9.914;2022-08-03T07:11:22;25.10;52.80
32356;DHT22;62578;53.556;9.914;2022-08-03T07:13:47;25.10;52.80
32356;DHT22;62578;53.556;9.914;2022-08-03T07:16:13;25.10;52.80
32356;DHT22;62578;53.556;9.914;2022-08-03T07:18:39;25.10;52.80
32356;DHT22;62578;53.556;9.914;2022-08-03T07:21:05;25.10;52.70
32356;DHT22;62578;53.556;9.914;2022-08-03T07:23:32;25.10;52.70
32356;DHT22;62578;53.556;9.914;2022-08-03T07:25:57;25.20;52.60
32356;DHT22;62578;53.556;9.914;2022-08-03T07:28:23;25.20;52.60
32356;DHT22;62578;53.556;9.914;2022-08-03T07:30:49;25.10;52.60
32356;DHT22;62578;53.556;9.914;2022-08-03T07:33:14;25.20;52.60
32356;DHT22;62578;53.556;9.914;2022-08-03T07:35:40;25.20;52.50
32356;DHT22;62578;53.556;9.914;2022-08-03T07:38:05;25.20;52.50
32356;DHT22;62578;53.556;9.914;2022-08-03T07:40:31;25.20;52.50
32356;DHT22;62578;53.556;9.914;2022-08-03T07:42:57;25.20;52.50
32356;DHT22;62578;53.556;9.914;2022-08-03T07:45:22;25.20;52.40
32356;DHT22;62578;53.556;9.914;2022-08-03T07:47:48;25.20;52.40
32356;DHT22;62578;53.556;9.914;2022-08-03T07:50:14;25.20;52.30
32356;DHT22;62578;53.556;9.914;2022-08-03T07:52:40;25.20;52.30
32356;DHT22;62578;53.556;9.914;2022-08-03T07:55:18;25.20;52.20
32356;DHT22;62578;53.556;9.914;2022-08-03T07:57:44;25.20;52.90
32356;DHT22;62578;53.556;9.914;2022-08-03T08:00:17;25.20;52.20
32356;DHT22;62578;53.556;9.914;2022-08-03T08:02:44;25.20;52.10
32356;DHT22;62578;53.556;9.914;2022-08-03T08:05:10;25.30;52.30
32356;DHT22;62578;53.556;9.914;2022-08-03T08:07:37;25.20;52.80
32356;DHT22;62578;53.556;9.914;2022-08-03T08:10:05;25.20;52.10
32356;DHT22;62578;53.556;9.914;2022-08-03T08:12:31;25.30;52.20
32356;DHT22;62578;53.556;9.914;2022-08-03T08:14:57;25.30;52.20
32356;DHT22;62578;53.556;9.914;2022-08-03T08:17:22;25.20;52.10
32356;DHT22;62578;53.556;9.914;2022-08-03T08:19:49;25.20;52.10
32356;DHT22;62578;53.556;9.914;2022-08-03T08:22:14;25.30;52.10
32356;DHT22;62578;53.556;9.914;2022-08-03T08:24:40;25.30;52.10
32356;DHT22;62578;53.556;9.914;2022-08-03T08:27:08;25.30;52.10
32356;DHT22;62578;53.556;9.914;2022-08-03T08:29:36;25.30;52.00
32356;DHT22;62578;53.556;9.914;2022-08-03T08:32:02;25.30;52.00
32356;DHT22;62578;53.556;9.914;2022-08-03T08:34:28;25.30;52.00
32356;DHT22;62578;53.556;9.914;2022-08-03T08:36:54;25.30;51.90
32356;DHT22;62578;53.556;9.914;2022-08-03T08:39:19;25.30;51.90
32356;DHT22;62578;53.556;9.914;2022-08-03T08:41:45;25.30;51.80
32356;DHT22;62578;53.556;9.914;2022-08-03T08:44:11;24.80;51.50
32356;DHT22;62578;53.556;9.914;2022-08-03T08:46:37;25.40;51.80
32356;DHT22;62578;53.556;9.914;2022-08-03T08:49:03;25.30;51.80
32356;DHT22;62578;53.556;9.914;2022-08-03T08:51:30;25.40;51.90
32356;DHT22;62578;53.556;9.914;2022-08-03T08:54:01;25.30;51.80
32356;DHT22;62578;53.556;9.914;2022-08-03T08:56:29;25.30;51.80
32356;DHT22;62578;53.556;9.914;2022-08-03T08:59:00;25.40;51.80
32356;DHT22;62578;53.556;9.914;2022-08-03T09:01:26;25.40;51.80
32356;DHT22;62578;53.556;9.914;2022-08-03T09:03:52;25.40;51.70
32356;DHT22;62578;53.556;9.914;2022-08-03T09:06:22;25.40;51.70
32356;DHT22;62578;53.556;9.914;2022-08-03T09:08:48;25.40;51.60
32356;DHT22;62578;53.556;9.914;2022-08-03T09:11:13;25.40;51.60
32356;DHT22;62578;53.556;9.914;2022-08-03T09:13:39;25.30;51.60
32356;DHT22;62578;53.556;9.914;2022-08-03T09:16:12;25.40;51.60
32356;DHT22;62578;53.556;9.914;2022-08-03T09:18:39;25.40;51.50
32356;DHT22;62578;53.556;9.914;2022-08-03T09:21:16;25.40;51.60
32356;DHT22;62578;53.556;9.914;2022-08-03T09:23:44;25.40;51.60
32356;DHT22;62578;53.556;9.914;2022-08-03T09:26:10;25.40;51.60
32356;DHT22;62578;53.556;9.914;2022-08-03T09:28:36;25.40;51.60
32356;DHT22;62578;53.556;9.914;2022-08-03T09:31:02;25.40;51.60
32356;DHT22;62578;53.556;9.914;2022-08-03T09:33:28;25.40;51.50
32356;DHT22;62578;53.556;9.914;2022-08-03T09:35:54;25.40;51.40
32356;DHT22;62578;53.556;9.914;2022-08-03T09:38:24;25.40;51.50
32356;DHT22;62578;53.556;9.914;2022-08-03T09:40:53;25.50;51.40
32356;DHT22;62578;53.556;9.914;2022-08-03T09:43:19;25.50;51.40
32356;DHT22;62578;53.556;9.914;2022-08-03T09:45:45;25.50;51.40
32356;DHT22;62578;53.556;9.914;2022-08-03T09:50:55;25.50;51.30
32356;DHT22;62578;53.556;9.914;2022-08-03T09:53:21;25.40;51.30
32356;DHT22;62578;53.556;9.914;2022-08-03T09:55:59;25.50;51.30
32356;DHT22;62578;53.556;9.914;2022-08-03T09:58:26;25.50;51.20
32356;DHT22;62578;53.556;9.914;2022-08-03T10:01:03;25.50;51.30
32356;DHT22;62578;53.556;9.914;2022-08-03T10:03:32;25.50;51.30
32356;DHT22;62578;53.556;9.914;2022-08-03T10:05:58;25.50;51.40
32356;DHT22;62578;53.556;9.914;2022-08-03T10:08:38;25.50;51.40
32356;DHT22;62578;53.556;9.914;2022-08-03T10:11:03;25.50;51.30
32356;DHT22;62578;53.556;9.914;2022-08-03T10:13:29;25.50;51.30
32356;DHT22;62578;53.556;9.914;2022-08-03T10:15:55;25.50;51.30
32356;DHT22;62578;53.556;9.914;2022-08-03T10:18:20;25.50;51.30
32356;DHT22;62578;53.556;9.914;2022-08-03T10:20:51;25.50;51.20
32356;DHT22;62578;53.556;9.914;2022-08-03T10:23:18;25.50;51.20
32356;DHT22;62578;53.556;9.914;2022-08-03T10:25:52;25.50;51.10
32356;DHT22;62578;53.556;9.914;2022-08-03T10:28:20;25.50;51.10
32356;DHT22;62578;53.556;9.914;2022-08-03T10:30:51;25.50;51.10
32356;DHT22;62578;53.556;9.914;2022-08-03T10:33:23;25.50;51.10
32356;DHT22;62578;53.556;9.914;2022-08-03T10:35:55;25.60;51.10
32356;DHT22;62578;53.556;9.914;2022-08-03T10:38:28;25.60;51.10
32356;DHT22;62578;53.556;9.914;2022-08-03T10:40:54;25.50;51.00
32356;DHT22;62578;53.556;9.914;2022-08-03T10:43:36;25.50;51.00
32356;DHT22;62578;53.556;9.914;2022-08-03T10:46:04;25.60;51.10
32356;DHT22;62578;53.556;9.914;2022-08-03T10:48:31;25.60;51.10
32356;DHT22;62578;53.556;9.914;2022-08-03T10:50:57;25.60;51.00
32356;DHT22;62578;53.556;9.914;2022-08-03T10:53:39;25.60;51.10
32356;DHT22;62578;53.556;9.914;2022-08-03T11:02:01;25.60;51.10
32356;DHT22;62578;53.556;9.914;2022-08-03T11:04:27;25.60;51.10
32356;DHT22;62578;53.556;9.914;2022-08-03T11:12:28;25.60;51.00
32356;DHT22;62578;53.556;9.914;2022-08-03T11:14:56;25.60;50.90
32356;DHT22;62578;53.556;9.914;2022-08-03T11:17:22;25.60;51.00
32356;DHT22;62578;53.556;9.914;2022-08-03T11:19:50;25.60;50.90
32356;DHT22;62578;53.556;9.914;2022-08-03T11:22:17;25.60;50.90
32356;DHT22;62578;53.556;9.914;2022-08-03T11:37:35;25.60;50.80
32356;DHT22;62578;53.556;9.914;2022-08-03T11:40:02;25.60;50.80
32356;DHT22;62578;53.556;9.914;2022-08-03T11:44:58;25.60;50.80
32356;DHT22;62578;53.556;9.914;2022-08-03T11:47:28;25.70;50.80
32356;DHT22;62578;53.556;9.914;2022-08-03T11:49:56;25.60;50.70
32356;DHT22;62578;53.556;9.914;2022-08-03T11:52:23;25.60;50.70
32356;DHT22;62578;53.556;9.914;2022-08-03T11:54:53;25.60;51.30
32356;DHT22;62578;53.556;9.914;2022-08-03T11:57:33;25.70;50.80
32356;DHT22;62578;53.556;9.914;2022-08-03T11:59:59;25.70;50.70
32356;DHT22;62578;53.556;9.914;2022-08-03T12:02:25;25.70;50.80
32356;DHT22;62578;53.556;9.914;2022-08-03T12:04:52;25.60;50.70
32356;DHT22;62578;53.556;9.914;2022-08-03T12:07:23;25.70;51.00
32356;DHT22;62578;53.556;9.914;2022-08-03T12:10:12;25.60;50.80
32356;DHT22;62578;53.556;9.914;2022-08-03T12:12:39;25.70;50.80
32356;DHT22;62578;53.556;9.914;2022-08-03T12:15:05;25.70;50.80
32356;DHT22;62578;53.556;9.914;2022-08-03T12:17:40;25.70;50.80
32356;DHT22;62578;53.556;9.914;2022-08-03T12:20:08;25.70;50.80
32356;DHT22;62578;53.556;9.914;2022-08-03T12:22:38;25.70;50.80
32356;DHT22;62578;53.556;9.914;2022-08-03T12:25:05;25.70;50.80
32356;DHT22;62578;53.556;9.914;2022-08-03T12:27:31;25.70;50.90
32356;DHT22;62578;53.556;9.914;2022-08-03T12:29:58;25.70;51.50
32356;DHT22;62578;53.556;9.914;2022-08-03T12:32:25;25.80;50.90
32356;DHT22;62578;53.556;9.914;2022-08-03T12:34:50;25.70;50.90
32356;DHT22;62578;53.556;9.914;2022-08-03T12:37:20;25.70;50.80
32356;DHT22;62578;53.556;9.914;2022-08-03T12:39:57;25.80;50.80
32356;DHT22;62578;53.556;9.914;2022-08-03T12:42:37;25.80;50.80
32356;DHT22;62578;53.556;9.914;2022-08-03T12:45:26;25.80;50.80
32356;DHT22;62578;53.556;9.914;2022-08-03T12:47:57;25.80;50.70
32356;DHT22;62578;53.556;9.914;2022-08-03T12:50:28;25.80;50.80
32356;DHT22;62578;53.556;9.914;2022-08-03T12:52:54;25.80;50.80
32356;DHT22;62578;53.556;9.914;2022-08-03T12:55:22;25.80;50.80
32356;DHT22;62578;53.556;9.914;2022-08-03T12:57:48;25.80;50.80
32356;DHT22;62578;53.556;9.914;2022-08-03T13:00:18;25.80;50.70
32356;DHT22;62578;53.556;9.914;2022-08-03T13:02:44;25.80;50.70
32356;DHT22;62578;53.556;9.914;2022-08-03T13:05:14;25.80;50.70
32356;DHT22;62578;53.556;9.914;2022-08-03T13:07:44;25.80;50.70
32356;DHT22;62578;53.556;9.914;2022-08-03T13:10:11;25.90;50.70
32356;DHT22;62578;53.556;9.914;2022-08-03T13:12:49;25.90;50.70
32356;DHT22;62578;53.556;9.914;2022-08-03T13:15:15;25.90;50.50
32356;DHT22;62578;53.556;9.914;2022-08-03T13:17:41;25.50;50.60
32356;DHT22;62578;53.556;9.914;2022-08-03T13:20:07;25.80;51.50
32356;DHT22;62578;53.556;9.914;2022-08-03T13:22:33;25.70;52.20
32356;DHT22;62578;53.556;9.914;2022-08-03T13:24:59;25.70;52.60
32356;DHT22;62578;53.556;9.914;2022-08-03T13:27:29;25.70;52.80
32356;DHT22;62578;53.556;9.914;2022-08-03T13:29:55;25.70;52.70
32356;DHT22;62578;53.556;9.914;2022-08-03T13:32:22;25.70;52.90
32356;DHT22;62578;53.556;9.914;2022-08-03T13:34:47;25.70;53.20
32356;DHT22;62578;53.556;9.914;2022-08-03T13:37:13;25.70;53.40
32356;DHT22;62578;53.556;9.914;2022-08-03T13:39:40;25.60;53.40
32356;DHT22;62578;53.556;9.914;2022-08-03T13:42:09;25.70;53.40
32356;DHT22;62578;53.556;9.914;2022-08-03T13:44:34;25.70;53.30
32356;DHT22;62578;53.556;9.914;2022-08-03T13:47:03;25.70;53.40
32356;DHT22;62578;53.556;9.914;2022-08-03T13:49:29;25.70;53.40
32356;DHT22;62578;53.556;9.914;2022-08-03T13:51:55;25.70;53.50
32356;DHT22;62578;53.556;9.914;2022-08-03T13:54:22;25.80;53.50
32356;DHT22;62578;53.556;9.914;2022-08-03T13:56:48;25.70;53.50
32356;DHT22;62578;53.556;9.914;2022-08-03T13:59:20;25.80;53.60
32356;DHT22;62578;53.556;9.914;2022-08-03T14:01:47;25.90;53.60
32356;DHT22;62578;53.556;9.914;2022-08-03T14:04:12;25.90;53.40
32356;DHT22;62578;53.556;9.914;2022-08-03T14:06:38;25.90;53.10
32356;DHT22;62578;53.556;9.914;2022-08-03T14:09:04;26.00;53.00
32356;DHT22;62578;53.556;9.914;2022-08-03T14:11:29;26.00;52.80
32356;DHT22;62578;53.556;9.914;2022-08-03T14:13:55;26.10;52.70
32356;DHT22;62578;53.556;9.914;2022-08-03T14:16:21;26.10;52.50
32356;DHT22;62578;53.556;9.914;2022-08-03T14:18:47;26.10;52.60
32356;DHT22;62578;53.556;9.914;2022-08-03T14:21:12;26.10;52.40
32356;DHT22;62578;53.556;9.914;2022-08-03T14:23:38;26.10;52.40
32356;DHT22;62578;53.556;9.914;2022-08-03T14:26:05;26.10;52.20
32356;DHT22;62578;53.556;9.914;2022-08-03T14:28:31;26.20;52.20
32356;DHT22;62578;53.556;9.914;2022-08-03T14:30:57;26.20;52.10
32356;DHT22;62578;53.556;9.914;2022-08-03T14:33:23;26.20;52.10
32356;DHT22;62578;53.556;9.914;2022-08-03T14:35:50;26.20;52.00
32356;DHT22;62578;53.556;9.914;2022-08-03T14:38:16;26.30;52.00
32356;DHT22;62578;53.556;9.914;2022-08-03T14:40:42;26.30;51.90
32356;DHT22;62578;53.556;9.914;2022-08-03T14:43:08;26.30;51.80
32356;DHT22;62578;53.556;9.914;2022-08-03T14:45:34;26.30;51.70
32356;DHT22;62578;53.556;9.914;2022-08-03T14:48:00;26.40;51.70
32356;DHT22;62578;53.556;9.914;2022-08-03T14:50:26;26.40;51.70
32356;DHT22;62578;53.556;9.914;2022-08-03T14:52:53;26.40;51.50
32356;DHT22;62578;53.556;9.914;2022-08-03T14:55:19;27.10;51.80
32356;DHT22;62578;53.556;9.914;2022-08-03T14:57:44;26.50;51.30
32356;DHT22;62578;53.556;9.914;2022-08-03T15:00:10;26.50;51.20
32356;DHT22;62578;53.556;9.914;2022-08-03T15:02:36;26.50;51.20
32356;DHT22;62578;53.556;9.914;2022-08-03T15:05:02;26.50;51.10
32356;DHT22;62578;53.556;9.914;2022-08-03T15:07:28;26.60;51.00
32356;DHT22;62578;53.556;9.914;2022-08-03T15:09:53;26.60;51.00
32356;DHT22;62578;53.556;9.914;2022-08-03T15:12:19;26.70;51.00
32356;DHT22;62578;53.556;9.914;2022-08-03T15:14:45;26.70;50.80
32356;DHT22;62578;53.556;9.914;2022-08-03T15:17:11;26.70;50.80
32356;DHT22;62578;53.556;9.914;2022-08-03T15:19:36;26.70;50.70
32356;DHT22;62578;53.556;9.914;2022-08-03T15:22:02;26.80;50.70
32356;DHT22;62578;53.556;9.914;2022-08-03T15:24:28;26.70;50.60
32356;DHT22;62578;53.556;9.914;2022-08-03T15:26:53;26.80;50.70
32356;DHT22;62578;53.556;9.914;2022-08-03T15:29:19;26.80;50.70
32356;DHT22;62578;53.556;9.914;2022-08-03T15:31:45;26.80;50.60
32356;DHT22;62578;53.556;9.914;2022-08-03T15:34:11;26.80;50.70
32356;DHT22;62578;53.556;9.914;2022-08-03T15:36:37;26.90;50.80
32356;DHT22;62578;53.556;9.914;2022-08-03T15:39:03;27.00;51.10
32356;DHT22;62578;53.556;9.914;2022-08-03T15:41:29;26.90;51.00
32356;DHT22;62578;53.556;9.914;2022-08-03T15:43:55;26.90;51.00
32356;DHT22;62578;53.556;9.914;2022-08-03T15:46:20;26.90;51.50
32356;DHT22;62578;53.556;9.914;2022-08-03T15:48:46;26.80;51.50
32356;DHT22;62578;53.556;9.914;2022-08-03T15:51:12;26.90;52.10
32356;DHT22;62578;53.556;9.914;2022-08-03T15:53:37;26.90;52.20
32356;DHT22;62578;53.556;9.914;2022-08-03T15:56:06;26.80;52.30
32356;DHT22;62578;53.556;9.914;2022-08-03T15:58:35;26.90;52.30
32356;DHT22;62578;53.556;9.914;2022-08-03T16:01:02;26.90;52.30
32356;DHT22;62578;53.556;9.914;2022-08-03T16:03:28;26.90;52.30
32356;DHT22;62578;53.556;9.914;2022-08-03T16:06:02;27.00;52.20
32356;DHT22;62578;53.556;9.914;2022-08-03T16:08:29;27.00;52.10
32356;DHT22;62578;53.556;9.914;2022-08-03T16:10:55;27.00;52.80
32356;DHT22;62578;53.556;9.914;2022-08-03T16:13:21;27.00;52.30
32356;DHT22;62578;53.556;9.914;2022-08-03T16:15:47;27.10;52.40